Terminal Aerodrome Forecast
Issued by NWS

Home | Current Version | Previous Version | Graphics & Text | Print | Product List | Glossary On
Versions: 1 2 3 4 5 6 7 8 9 10 11 12 13 14 15 16 17 18 19 20 21 22 23 24 25 26 27 28
000
FTUS43 KLOT 200219 AAA
TAFGYY
TAF AMD
KGYY 200219Z 2002/2024 03012KT P6SM SCT005 OVC010
      TEMPO 2002/2006 OVC005
     FM200900 09012G18KT P6SM BKN007 OVC012
     FM201200 08012G18KT 6SM -SHRA VCTS OVC007CB
      TEMPO 2013/2016 2SM TSRA BR
     FM201700 13012G18KT 6SM BR SCT009 OVC015
     FM202000 13012KT P6SM SCT015 BKN025 PROB30 2021/2024 3SM TSRA
      OVC025CB=

USA.gov is the U.S. government's official web portal to all federal, state and local government web resources and services.